Kugler, Minnesota
Current Conditions -  °F | °C
As of 3:55 PM on Monday 24 Nov 2014 (Local Time) from KCQM Reporting Station
Light Snow Light Snow  
Wind Chill: -15°   Ceiling: 2100
Heat Index: -9°   Visibility: 4mi
Dew Point: -11°   Wind: 9mph
Humidity: 86%   Direction: 320°NW
Pressure: 29.61"   Gusts: 16mph
Location:  47.7992°N, 92.3042°W
Report Text: KCQM 242155Z AUTO 32008G14KT 4SM -SN BKN021 OVC045 M09/M11 A2961 RMK AO2
Loading
Personal Weather Stations






























Interactive Weather Map New forecast layout! Learn more

10-Day Weather Forecast

Advertisements
Track Severe Weather on mobile